TGPY/GND METAR and TAF weather

Enter ICAO airport designator
Station Type Date Time Source
TGPY METAR 2020/07/11 23:00 UTC NOAA

TGPY 112300Z 07012KT 9999 FEW016TCU 28/25 Q1012 ADJ SHRA-SW TCU-SE SW


Station Type Date Time Source
TGPY Decoded METAR 2020/07/11 23:00 UTC NOAA

Point Salines Airport, Grenada (TGPY) 12-00N 061-47W 7M
Jul 11, 2020 - 07:00 PM EDT / 2020.07.11 2300 UTC
Wind: from the ENE (070 degrees) at 14 MPH (12 KT):0
Visibility: greater than 7 mile(s):0
Sky conditions: mostly clear
Weather: Towering cumulus clouds observed
Temperature: 82 F (28 C)
Dew Point: 77 F (25 C)
Relative Humidity: 83%
Pressure (altimeter): 29.88 in. Hg (1012 hPa)
ob: TGPY 112300Z 07012KT 9999 FEW016TCU 28/25 Q1012 ADJ SHRA-SW TCU-SE SW
cycle: 23

Station Type Date Time Source
TGPY TAF 2020/07/11 18:57 UTC NOAA

TAF TGPY 111600Z 1118/1218 09015KT 9999 SCT020

Example: see airport list